sensor_id;sensor_type;location;lat;lon;timestamp;P1;durP1;ratioP1;P2;durP2;ratioP2
73487;SDS011;61721;42.206;25.320;2023-07-20T00:01:20;6.60;;;3.63;;
73487;SDS011;61721;42.206;25.320;2023-07-20T00:03:47;7.75;;;3.20;;
73487;SDS011;61721;42.206;25.320;2023-07-20T00:06:20;6.85;;;3.30;;
73487;SDS011;61721;42.206;25.320;2023-07-20T00:08:48;6.70;;;3.10;;
73487;SDS011;61721;42.206;25.320;2023-07-20T00:11:16;6.50;;;3.28;;
73487;SDS011;61721;42.206;25.320;2023-07-20T00:13:43;10.57;;;3.40;;
73487;SDS011;61721;42.206;25.320;2023-07-20T00:16:10;6.75;;;3.58;;
73487;SDS011;61721;42.206;25.320;2023-07-20T00:18:37;5.85;;;3.47;;
73487;SDS011;61721;42.206;25.320;2023-07-20T00:21:04;7.70;;;3.42;;
73487;SDS011;61721;42.206;25.320;2023-07-20T00:23:31;6.07;;;3.47;;
73487;SDS011;61721;42.206;25.320;2023-07-20T00:26:00;7.22;;;3.42;;
73487;SDS011;61721;42.206;25.320;2023-07-20T00:28:27;7.05;;;3.53;;
73487;SDS011;61721;42.206;25.320;2023-07-20T00:30:54;6.93;;;3.33;;
73487;SDS011;61721;42.206;25.320;2023-07-20T00:33:21;10.40;;;3.60;;
73487;SDS011;61721;42.206;25.320;2023-07-20T00:35:48;6.40;;;3.88;;
73487;SDS011;61721;42.206;25.320;2023-07-20T00:38:15;5.75;;;3.47;;
73487;SDS011;61721;42.206;25.320;2023-07-20T00:40:42;7.25;;;3.65;;
73487;SDS011;61721;42.206;25.320;2023-07-20T00:43:11;5.57;;;3.50;;
73487;SDS011;61721;42.206;25.320;2023-07-20T00:45:38;5.63;;;3.40;;
73487;SDS011;61721;42.206;25.320;2023-07-20T00:48:06;7.03;;;3.53;;
73487;SDS011;61721;42.206;25.320;2023-07-20T00:50:33;7.47;;;3.40;;
73487;SDS011;61721;42.206;25.320;2023-07-20T00:53:01;9.20;;;3.50;;
73487;SDS011;61721;42.206;25.320;2023-07-20T00:55:31;6.97;;;3.50;;
73487;SDS011;61721;42.206;25.320;2023-07-20T00:57:58;10.85;;;3.47;;
73487;SDS011;61721;42.206;25.320;2023-07-20T01:00:27;5.90;;;3.28;;
73487;SDS011;61721;42.206;25.320;2023-07-20T01:02:54;9.93;;;3.55;;
73487;SDS011;61721;42.206;25.320;2023-07-20T01:05:21;9.60;;;3.40;;
73487;SDS011;61721;42.206;25.320;2023-07-20T01:07:59;8.32;;;3.50;;
73487;SDS011;61721;42.206;25.320;2023-07-20T01:10:31;8.93;;;2.95;;
73487;SDS011;61721;42.206;25.320;2023-07-20T01:13:03;10.82;;;2.90;;
73487;SDS011;61721;42.206;25.320;2023-07-20T01:15:34;9.43;;;3.30;;
73487;SDS011;61721;42.206;25.320;2023-07-20T01:18:02;11.43;;;3.30;;
73487;SDS011;61721;42.206;25.320;2023-07-20T01:20:30;7.47;;;3.00;;
73487;SDS011;61721;42.206;25.320;2023-07-20T01:23:16;13.63;;;2.58;;
73487;SDS011;61721;42.206;25.320;2023-07-20T01:26:08;19.90;;;2.53;;
73487;SDS011;61721;42.206;25.320;2023-07-20T01:28:49;7.47;;;2.70;;
73487;SDS011;61721;42.206;25.320;2023-07-20T01:31:35;12.85;;;2.85;;
73487;SDS011;61721;42.206;25.320;2023-07-20T01:34:11;9.95;;;3.30;;
73487;SDS011;61721;42.206;25.320;2023-07-20T01:36:43;7.20;;;2.35;;
73487;SDS011;61721;42.206;25.320;2023-07-20T01:39:12;9.88;;;2.55;;
73487;SDS011;61721;42.206;25.320;2023-07-20T01:41:39;7.45;;;2.70;;
73487;SDS011;61721;42.206;25.320;2023-07-20T01:44:07;5.80;;;2.35;;
73487;SDS011;61721;42.206;25.320;2023-07-20T01:46:36;10.07;;;2.60;;
73487;SDS011;61721;42.206;25.320;2023-07-20T01:49:03;10.07;;;2.50;;
73487;SDS011;61721;42.206;25.320;2023-07-20T01:51:31;6.97;;;2.35;;
73487;SDS011;61721;42.206;25.320;2023-07-20T01:53:58;11.30;;;2.88;;
73487;SDS011;61721;42.206;25.320;2023-07-20T01:56:25;9.15;;;2.97;;
73487;SDS011;61721;42.206;25.320;2023-07-20T01:58:52;7.68;;;2.83;;
73487;SDS011;61721;42.206;25.320;2023-07-20T02:01:19;7.07;;;3.10;;
73487;SDS011;61721;42.206;25.320;2023-07-20T02:03:47;6.63;;;2.97;;
73487;SDS011;61721;42.206;25.320;2023-07-20T02:06:14;9.48;;;3.42;;
73487;SDS011;61721;42.206;25.320;2023-07-20T02:08:42;7.18;;;3.70;;
73487;SDS011;61721;42.206;25.320;2023-07-20T02:11:09;9.52;;;4.03;;
73487;SDS011;61721;42.206;25.320;2023-07-20T02:13:37;10.13;;;3.80;;
73487;SDS011;61721;42.206;25.320;2023-07-20T02:16:04;10.93;;;4.28;;
73487;SDS011;61721;42.206;25.320;2023-07-20T02:18:31;7.10;;;4.15;;
73487;SDS011;61721;42.206;25.320;2023-07-20T02:21:00;7.18;;;3.85;;
73487;SDS011;61721;42.206;25.320;2023-07-20T02:23:27;7.43;;;4.00;;
73487;SDS011;61721;42.206;25.320;2023-07-20T02:25:54;8.10;;;3.88;;
73487;SDS011;61721;42.206;25.320;2023-07-20T02:28:21;10.10;;;4.50;;
73487;SDS011;61721;42.206;25.320;2023-07-20T02:30:48;7.68;;;4.20;;
73487;SDS011;61721;42.206;25.320;2023-07-20T02:33:16;11.82;;;4.25;;
73487;SDS011;61721;42.206;25.320;2023-07-20T02:35:43;8.48;;;4.40;;
73487;SDS011;61721;42.206;25.320;2023-07-20T02:38:11;7.80;;;3.80;;
73487;SDS011;61721;42.206;25.320;2023-07-20T02:40:38;10.00;;;4.03;;
73487;SDS011;61721;42.206;25.320;2023-07-20T02:43:05;10.35;;;4.82;;
73487;SDS011;61721;42.206;25.320;2023-07-20T02:45:33;9.13;;;4.50;;
73487;SDS011;61721;42.206;25.320;2023-07-20T02:48:00;8.32;;;3.90;;
73487;SDS011;61721;42.206;25.320;2023-07-20T02:50:27;11.60;;;4.43;;
73487;SDS011;61721;42.206;25.320;2023-07-20T02:52:55;9.85;;;4.85;;
73487;SDS011;61721;42.206;25.320;2023-07-20T02:55:23;9.02;;;4.55;;
73487;SDS011;61721;42.206;25.320;2023-07-20T02:57:50;8.77;;;3.80;;
73487;SDS011;61721;42.206;25.320;2023-07-20T03:00:17;8.07;;;4.90;;
73487;SDS011;61721;42.206;25.320;2023-07-20T03:02:45;8.55;;;4.10;;
73487;SDS011;61721;42.206;25.320;2023-07-20T03:05:14;7.65;;;4.32;;
73487;SDS011;61721;42.206;25.320;2023-07-20T03:07:42;11.05;;;4.38;;
73487;SDS011;61721;42.206;25.320;2023-07-20T03:10:10;7.13;;;4.07;;
73487;SDS011;61721;42.206;25.320;2023-07-20T03:12:39;13.20;;;4.13;;
73487;SDS011;61721;42.206;25.320;2023-07-20T03:15:07;6.95;;;4.07;;
73487;SDS011;61721;42.206;25.320;2023-07-20T03:17:35;7.43;;;4.35;;
73487;SDS011;61721;42.206;25.320;2023-07-20T03:20:03;10.93;;;4.45;;
73487;SDS011;61721;42.206;25.320;2023-07-20T03:22:34;8.55;;;4.20;;
73487;SDS011;61721;42.206;25.320;2023-07-20T03:25:01;7.30;;;4.28;;
73487;SDS011;61721;42.206;25.320;2023-07-20T03:27:29;10.23;;;4.32;;
73487;SDS011;61721;42.206;25.320;2023-07-20T03:29:58;10.68;;;4.13;;
73487;SDS011;61721;42.206;25.320;2023-07-20T03:32:26;7.25;;;4.10;;
73487;SDS011;61721;42.206;25.320;2023-07-20T03:34:53;7.50;;;4.35;;
73487;SDS011;61721;42.206;25.320;2023-07-20T03:37:20;10.07;;;4.40;;
73487;SDS011;61721;42.206;25.320;2023-07-20T03:39:48;11.55;;;4.28;;
73487;SDS011;61721;42.206;25.320;2023-07-20T03:42:15;10.40;;;4.70;;
73487;SDS011;61721;42.206;25.320;2023-07-20T03:44:42;10.98;;;4.35;;
73487;SDS011;61721;42.206;25.320;2023-07-20T03:47:10;10.18;;;4.60;;
73487;SDS011;61721;42.206;25.320;2023-07-20T03:49:37;9.30;;;4.13;;
73487;SDS011;61721;42.206;25.320;2023-07-20T03:52:04;10.05;;;4.25;;
73487;SDS011;61721;42.206;25.320;2023-07-20T03:54:32;8.27;;;4.25;;
73487;SDS011;61721;42.206;25.320;2023-07-20T03:57:00;7.78;;;4.18;;
73487;SDS011;61721;42.206;25.320;2023-07-20T03:59:27;14.00;;;7.38;;
73487;SDS011;61721;42.206;25.320;2023-07-20T04:01:55;12.23;;;4.05;;
73487;SDS011;61721;42.206;25.320;2023-07-20T04:04:24;8.48;;;4.38;;
73487;SDS011;61721;42.206;25.320;2023-07-20T04:06:51;12.40;;;4.22;;
73487;SDS011;61721;42.206;25.320;2023-07-20T04:09:18;10.35;;;3.83;;
73487;SDS011;61721;42.206;25.320;2023-07-20T04:11:45;10.15;;;4.10;;
73487;SDS011;61721;42.206;25.320;2023-07-20T04:14:12;7.93;;;4.13;;
73487;SDS011;61721;42.206;25.320;2023-07-20T04:16:39;8.98;;;4.47;;
73487;SDS011;61721;42.206;25.320;2023-07-20T04:19:06;10.93;;;4.53;;
73487;SDS011;61721;42.206;25.320;2023-07-20T04:21:39;8.38;;;4.20;;
73487;SDS011;61721;42.206;25.320;2023-07-20T04:24:07;12.38;;;4.57;;
73487;SDS011;61721;42.206;25.320;2023-07-20T04:26:34;12.68;;;4.93;;
73487;SDS011;61721;42.206;25.320;2023-07-20T04:29:02;11.90;;;4.78;;
73487;SDS011;61721;42.206;25.320;2023-07-20T04:31:29;14.48;;;4.70;;
73487;SDS011;61721;42.206;25.320;2023-07-20T04:33:58;8.25;;;4.75;;
73487;SDS011;61721;42.206;25.320;2023-07-20T04:36:25;13.35;;;5.05;;
73487;SDS011;61721;42.206;25.320;2023-07-20T04:38:54;9.00;;;4.30;;
73487;SDS011;61721;42.206;25.320;2023-07-20T04:41:21;15.38;;;4.50;;
73487;SDS011;61721;42.206;25.320;2023-07-20T04:43:48;9.00;;;4.45;;
73487;SDS011;61721;42.206;25.320;2023-07-20T04:46:15;10.95;;;4.20;;
73487;SDS011;61721;42.206;25.320;2023-07-20T04:48:43;12.38;;;5.03;;
73487;SDS011;61721;42.206;25.320;2023-07-20T04:51:10;12.23;;;4.53;;
73487;SDS011;61721;42.206;25.320;2023-07-20T04:53:37;11.10;;;4.90;;
73487;SDS011;61721;42.206;25.320;2023-07-20T04:56:06;11.07;;;4.22;;
73487;SDS011;61721;42.206;25.320;2023-07-20T04:58:33;14.88;;;4.28;;
73487;SDS011;61721;42.206;25.320;2023-07-20T05:01:00;12.15;;;4.10;;
73487;SDS011;61721;42.206;25.320;2023-07-20T05:03:27;12.13;;;3.97;;
73487;SDS011;61721;42.206;25.320;2023-07-20T05:05:54;10.40;;;4.63;;
73487;SDS011;61721;42.206;25.320;2023-07-20T05:08:21;10.70;;;4.00;;
73487;SDS011;61721;42.206;25.320;2023-07-20T05:10:48;15.40;;;3.95;;
73487;SDS011;61721;42.206;25.320;2023-07-20T05:13:17;9.15;;;3.70;;
73487;SDS011;61721;42.206;25.320;2023-07-20T05:15:44;8.25;;;3.97;;
73487;SDS011;61721;42.206;25.320;2023-07-20T05:18:11;31.13;;;5.03;;
73487;SDS011;61721;42.206;25.320;2023-07-20T05:20:38;8.23;;;3.15;;
73487;SDS011;61721;42.206;25.320;2023-07-20T05:23:06;9.68;;;3.38;;
73487;SDS011;61721;42.206;25.320;2023-07-20T05:25:34;6.15;;;3.03;;
73487;SDS011;61721;42.206;25.320;2023-07-20T05:28:01;7.22;;;3.20;;
73487;SDS011;61721;42.206;25.320;2023-07-20T05:30:30;5.72;;;3.10;;
73487;SDS011;61721;42.206;25.320;2023-07-20T05:32:57;7.88;;;3.22;;
73487;SDS011;61721;42.206;25.320;2023-07-20T05:35:25;11.50;;;3.35;;
73487;SDS011;61721;42.206;25.320;2023-07-20T05:37:52;6.38;;;3.33;;
73487;SDS011;61721;42.206;25.320;2023-07-20T05:40:19;7.25;;;3.10;;
73487;SDS011;61721;42.206;25.320;2023-07-20T05:42:46;9.85;;;3.42;;
73487;SDS011;61721;42.206;25.320;2023-07-20T05:45:14;7.40;;;3.03;;
73487;SDS011;61721;42.206;25.320;2023-07-20T05:47:43;6.07;;;3.53;;
73487;SDS011;61721;42.206;25.320;2023-07-20T05:50:10;10.10;;;3.38;;
73487;SDS011;61721;42.206;25.320;2023-07-20T05:52:37;10.98;;;3.60;;
73487;SDS011;61721;42.206;25.320;2023-07-20T05:55:06;12.73;;;3.40;;
73487;SDS011;61721;42.206;25.320;2023-07-20T05:57:33;7.70;;;3.53;;
73487;SDS011;61721;42.206;25.320;2023-07-20T06:00:00;15.15;;;3.97;;
73487;SDS011;61721;42.206;25.320;2023-07-20T06:05:06;6.80;;;3.90;;
73487;SDS011;61721;42.206;25.320;2023-07-20T06:07:35;10.45;;;3.88;;
73487;SDS011;61721;42.206;25.320;2023-07-20T06:10:02;7.65;;;3.80;;
73487;SDS011;61721;42.206;25.320;2023-07-20T06:12:30;6.10;;;3.75;;
73487;SDS011;61721;42.206;25.320;2023-07-20T06:14:57;10.55;;;4.22;;
73487;SDS011;61721;42.206;25.320;2023-07-20T06:17:28;12.05;;;4.20;;
73487;SDS011;61721;42.206;25.320;2023-07-20T06:19:55;8.90;;;3.53;;
73487;SDS011;61721;42.206;25.320;2023-07-20T06:22:24;8.20;;;3.85;;
73487;SDS011;61721;42.206;25.320;2023-07-20T06:24:51;6.75;;;3.50;;
73487;SDS011;61721;42.206;25.320;2023-07-20T06:27:18;6.82;;;4.32;;
73487;SDS011;61721;42.206;25.320;2023-07-20T06:29:45;10.15;;;4.00;;
73487;SDS011;61721;42.206;25.320;2023-07-20T06:32:12;7.88;;;4.43;;
73487;SDS011;61721;42.206;25.320;2023-07-20T06:34:39;9.23;;;4.50;;
73487;SDS011;61721;42.206;25.320;2023-07-20T06:37:07;8.95;;;4.03;;
73487;SDS011;61721;42.206;25.320;2023-07-20T06:39:35;10.38;;;4.13;;
73487;SDS011;61721;42.206;25.320;2023-07-20T06:42:02;8.10;;;3.95;;
73487;SDS011;61721;42.206;25.320;2023-07-20T06:44:30;9.82;;;3.80;;
73487;SDS011;61721;42.206;25.320;2023-07-20T06:46:57;6.88;;;3.65;;
73487;SDS011;61721;42.206;25.320;2023-07-20T06:49:25;12.38;;;4.00;;
73487;SDS011;61721;42.206;25.320;2023-07-20T06:51:53;9.25;;;3.88;;
73487;SDS011;61721;42.206;25.320;2023-07-20T06:54:21;11.20;;;4.05;;
73487;SDS011;61721;42.206;25.320;2023-07-20T06:56:50;9.90;;;3.67;;
73487;SDS011;61721;42.206;25.320;2023-07-20T06:59:17;10.30;;;4.00;;
73487;SDS011;61721;42.206;25.320;2023-07-20T07:01:44;7.32;;;3.63;;
73487;SDS011;61721;42.206;25.320;2023-07-20T07:04:11;8.32;;;3.78;;
73487;SDS011;61721;42.206;25.320;2023-07-20T07:06:38;7.95;;;3.80;;
73487;SDS011;61721;42.206;25.320;2023-07-20T07:09:05;7.78;;;4.22;;
73487;SDS011;61721;42.206;25.320;2023-07-20T07:11:33;6.13;;;4.00;;
73487;SDS011;61721;42.206;25.320;2023-07-20T07:14:01;8.55;;;3.80;;
73487;SDS011;61721;42.206;25.320;2023-07-20T07:16:30;7.72;;;3.60;;
73487;SDS011;61721;42.206;25.320;2023-07-20T07:18:57;5.57;;;3.60;;
73487;SDS011;61721;42.206;25.320;2023-07-20T07:21:24;8.07;;;3.50;;
73487;SDS011;61721;42.206;25.320;2023-07-20T07:23:58;9.20;;;4.00;;
73487;SDS011;61721;42.206;25.320;2023-07-20T07:26:25;9.90;;;4.45;;
73487;SDS011;61721;42.206;25.320;2023-07-20T07:28:53;8.98;;;4.00;;
73487;SDS011;61721;42.206;25.320;2023-07-20T07:31:22;7.60;;;3.92;;
73487;SDS011;61721;42.206;25.320;2023-07-20T07:33:49;10.13;;;3.72;;
73487;SDS011;61721;42.206;25.320;2023-07-20T07:36:16;8.60;;;3.58;;
73487;SDS011;61721;42.206;25.320;2023-07-20T07:38:43;13.13;;;4.07;;
73487;SDS011;61721;42.206;25.320;2023-07-20T07:41:11;9.18;;;3.90;;
73487;SDS011;61721;42.206;25.320;2023-07-20T07:43:40;9.18;;;4.03;;
73487;SDS011;61721;42.206;25.320;2023-07-20T07:46:07;7.82;;;3.53;;
73487;SDS011;61721;42.206;25.320;2023-07-20T07:48:36;9.50;;;3.83;;
73487;SDS011;61721;42.206;25.320;2023-07-20T07:51:03;7.15;;;3.90;;
73487;SDS011;61721;42.206;25.320;2023-07-20T07:53:31;8.80;;;3.95;;
73487;SDS011;61721;42.206;25.320;2023-07-20T07:55:58;9.10;;;4.32;;
73487;SDS011;61721;42.206;25.320;2023-07-20T07:58:25;8.63;;;3.97;;
73487;SDS011;61721;42.206;25.320;2023-07-20T08:00:52;5.97;;;3.33;;
73487;SDS011;61721;42.206;25.320;2023-07-20T08:03:19;20.83;;;4.70;;
73487;SDS011;61721;42.206;25.320;2023-07-20T08:05:48;10.90;;;3.88;;
73487;SDS011;61721;42.206;25.320;2023-07-20T08:08:21;11.07;;;4.18;;
73487;SDS011;61721;42.206;25.320;2023-07-20T08:10:48;6.70;;;3.90;;
73487;SDS011;61721;42.206;25.320;2023-07-20T08:13:19;8.70;;;3.80;;
73487;SDS011;61721;42.206;25.320;2023-07-20T08:15:52;6.75;;;3.90;;
73487;SDS011;61721;42.206;25.320;2023-07-20T08:18:20;7.22;;;3.90;;
73487;SDS011;61721;42.206;25.320;2023-07-20T08:20:50;6.07;;;3.72;;
73487;SDS011;61721;42.206;25.320;2023-07-20T08:23:17;8.88;;;3.65;;
73487;SDS011;61721;42.206;25.320;2023-07-20T08:25:46;7.50;;;3.60;;
73487;SDS011;61721;42.206;25.320;2023-07-20T08:28:13;10.70;;;3.85;;
73487;SDS011;61721;42.206;25.320;2023-07-20T08:30:41;12.25;;;4.05;;
73487;SDS011;61721;42.206;25.320;2023-07-20T08:33:09;10.85;;;4.40;;
73487;SDS011;61721;42.206;25.320;2023-07-20T08:35:38;11.13;;;3.88;;
73487;SDS011;61721;42.206;25.320;2023-07-20T08:38:07;7.72;;;3.72;;
73487;SDS011;61721;42.206;25.320;2023-07-20T08:40:39;13.48;;;3.92;;
73487;SDS011;61721;42.206;25.320;2023-07-20T08:43:07;11.55;;;3.97;;
73487;SDS011;61721;42.206;25.320;2023-07-20T08:45:36;7.38;;;4.00;;
73487;SDS011;61721;42.206;25.320;2023-07-20T08:48:11;9.77;;;3.80;;
73487;SDS011;61721;42.206;25.320;2023-07-20T08:50:39;6.60;;;3.78;;
73487;SDS011;61721;42.206;25.320;2023-07-20T08:53:09;10.13;;;3.60;;
73487;SDS011;61721;42.206;25.320;2023-07-20T08:55:37;8.65;;;3.88;;
73487;SDS011;61721;42.206;25.320;2023-07-20T08:58:05;7.53;;;3.78;;
73487;SDS011;61721;42.206;25.320;2023-07-20T09:00:38;7.38;;;3.88;;
73487;SDS011;61721;42.206;25.320;2023-07-20T09:03:05;8.93;;;3.90;;
73487;SDS011;61721;42.206;25.320;2023-07-20T09:05:35;8.32;;;3.83;;
73487;SDS011;61721;42.206;25.320;2023-07-20T09:08:04;6.97;;;3.63;;
73487;SDS011;61721;42.206;25.320;2023-07-20T09:10:32;8.93;;;3.90;;
73487;SDS011;61721;42.206;25.320;2023-07-20T09:12:59;11.55;;;4.40;;
73487;SDS011;61721;42.206;25.320;2023-07-20T09:15:28;9.13;;;3.45;;
73487;SDS011;61721;42.206;25.320;2023-07-20T09:17:56;10.18;;;4.25;;
73487;SDS011;61721;42.206;25.320;2023-07-20T09:20:28;7.65;;;3.75;;
73487;SDS011;61721;42.206;25.320;2023-07-20T09:22:59;10.25;;;4.35;;
73487;SDS011;61721;42.206;25.320;2023-07-20T09:25:32;8.30;;;3.67;;
73487;SDS011;61721;42.206;25.320;2023-07-20T09:28:02;7.60;;;3.65;;
73487;SDS011;61721;42.206;25.320;2023-07-20T09:30:29;7.32;;;3.70;;
73487;SDS011;61721;42.206;25.320;2023-07-20T09:32:58;17.52;;;4.20;;
73487;SDS011;61721;42.206;25.320;2023-07-20T09:35:27;7.85;;;3.13;;
73487;SDS011;61721;42.206;25.320;2023-07-20T09:37:54;8.75;;;3.70;;
73487;SDS011;61721;42.206;25.320;2023-07-20T09:40:30;8.13;;;3.60;;
73487;SDS011;61721;42.206;25.320;2023-07-20T09:43:07;8.20;;;3.97;;
73487;SDS011;61721;42.206;25.320;2023-07-20T09:45:35;10.68;;;3.95;;
73487;SDS011;61721;42.206;25.320;2023-07-20T09:48:06;7.35;;;3.60;;
73487;SDS011;61721;42.206;25.320;2023-07-20T09:50:34;6.68;;;3.45;;
73487;SDS011;61721;42.206;25.320;2023-07-20T09:53:05;7.10;;;3.88;;
73487;SDS011;61721;42.206;25.320;2023-07-20T09:55:34;6.50;;;4.00;;
73487;SDS011;61721;42.206;25.320;2023-07-20T09:58:01;9.88;;;3.95;;
73487;SDS011;61721;42.206;25.320;2023-07-20T10:00:34;7.88;;;3.33;;
73487;SDS011;61721;42.206;25.320;2023-07-20T10:03:10;7.45;;;3.80;;
73487;SDS011;61721;42.206;25.320;2023-07-20T10:05:39;9.07;;;3.92;;
73487;SDS011;61721;42.206;25.320;2023-07-20T10:08:12;7.22;;;3.78;;
73487;SDS011;61721;42.206;25.320;2023-07-20T10:10:45;8.70;;;3.80;;
73487;SDS011;61721;42.206;25.320;2023-07-20T10:13:16;7.68;;;3.83;;
73487;SDS011;61721;42.206;25.320;2023-07-20T10:15:53;9.05;;;4.28;;
73487;SDS011;61721;42.206;25.320;2023-07-20T10:18:25;8.40;;;3.72;;
73487;SDS011;61721;42.206;25.320;2023-07-20T10:20:56;7.60;;;4.03;;
73487;SDS011;61721;42.206;25.320;2023-07-20T10:23:26;10.05;;;3.60;;
73487;SDS011;61721;42.206;25.320;2023-07-20T10:25:55;6.22;;;3.90;;
73487;SDS011;61721;42.206;25.320;2023-07-20T10:28:24;9.10;;;4.75;;
73487;SDS011;61721;42.206;25.320;2023-07-20T10:30:52;11.18;;;4.22;;
73487;SDS011;61721;42.206;25.320;2023-07-20T10:33:19;8.43;;;4.15;;
73487;SDS011;61721;42.206;25.320;2023-07-20T10:35:51;8.55;;;3.90;;
73487;SDS011;61721;42.206;25.320;2023-07-20T10:38:18;7.43;;;3.42;;
73487;SDS011;61721;42.206;25.320;2023-07-20T10:40:55;9.10;;;3.85;;
73487;SDS011;61721;42.206;25.320;2023-07-20T10:43:22;7.90;;;3.85;;
73487;SDS011;61721;42.206;25.320;2023-07-20T10:45:51;9.32;;;4.25;;
73487;SDS011;61721;42.206;25.320;2023-07-20T10:48:21;10.75;;;3.70;;
73487;SDS011;61721;42.206;25.320;2023-07-20T10:53:37;9.18;;;3.20;;
73487;SDS011;61721;42.206;25.320;2023-07-20T10:56:07;8.05;;;3.40;;
73487;SDS011;61721;42.206;25.320;2023-07-20T10:58:37;6.53;;;3.30;;
73487;SDS011;61721;42.206;25.320;2023-07-20T11:01:06;10.40;;;3.83;;
73487;SDS011;61721;42.206;25.320;2023-07-20T11:03:34;7.82;;;3.20;;
73487;SDS011;61721;42.206;25.320;2023-07-20T11:09:04;8.07;;;3.78;;
73487;SDS011;61721;42.206;25.320;2023-07-20T11:11:33;9.38;;;3.80;;
73487;SDS011;61721;42.206;25.320;2023-07-20T11:14:03;8.13;;;3.63;;
73487;SDS011;61721;42.206;25.320;2023-07-20T11:16:36;8.98;;;3.50;;
73487;SDS011;61721;42.206;25.320;2023-07-20T11:19:05;7.32;;;4.00;;
73487;SDS011;61721;42.206;25.320;2023-07-20T11:21:43;12.18;;;4.22;;
73487;SDS011;61721;42.206;25.320;2023-07-20T11:24:11;7.45;;;3.55;;
73487;SDS011;61721;42.206;25.320;2023-07-20T11:26:40;8.68;;;3.75;;
73487;SDS011;61721;42.206;25.320;2023-07-20T11:29:09;9.65;;;3.97;;
73487;SDS011;61721;42.206;25.320;2023-07-20T11:31:42;10.55;;;4.22;;
73487;SDS011;61721;42.206;25.320;2023-07-20T11:36:39;8.50;;;4.40;;
73487;SDS011;61721;42.206;25.320;2023-07-20T11:39:08;7.47;;;3.97;;
73487;SDS011;61721;42.206;25.320;2023-07-20T11:44:38;10.02;;;3.88;;
73487;SDS011;61721;42.206;25.320;2023-07-20T11:47:08;20.75;;;4.43;;
73487;SDS011;61721;42.206;25.320;2023-07-20T11:49:40;6.88;;;3.60;;
73487;SDS011;61721;42.206;25.320;2023-07-20T11:52:15;8.30;;;3.85;;
73487;SDS011;61721;42.206;25.320;2023-07-20T11:54:43;9.25;;;4.43;;
73487;SDS011;61721;42.206;25.320;2023-07-20T11:57:15;7.07;;;4.00;;
73487;SDS011;61721;42.206;25.320;2023-07-20T11:59:52;8.48;;;3.30;;
73487;SDS011;61721;42.206;25.320;2023-07-20T12:02:21;9.60;;;3.45;;
73487;SDS011;61721;42.206;25.320;2023-07-20T12:04:50;7.43;;;3.55;;
73487;SDS011;61721;42.206;25.320;2023-07-20T12:07:18;8.88;;;3.53;;
73487;SDS011;61721;42.206;25.320;2023-07-20T12:12:31;9.57;;;3.70;;
73487;SDS011;61721;42.206;25.320;2023-07-20T12:15:11;8.57;;;3.88;;
73487;SDS011;61721;42.206;25.320;2023-07-20T12:17:43;9.18;;;4.05;;
73487;SDS011;61721;42.206;25.320;2023-07-20T12:20:11;8.20;;;4.10;;
73487;SDS011;61721;42.206;25.320;2023-07-20T12:22:40;10.20;;;3.95;;
73487;SDS011;61721;42.206;25.320;2023-07-20T12:25:08;8.40;;;3.80;;
73487;SDS011;61721;42.206;25.320;2023-07-20T12:27:36;7.53;;;3.75;;
73487;SDS011;61721;42.206;25.320;2023-07-20T12:30:04;8.60;;;3.85;;
73487;SDS011;61721;42.206;25.320;2023-07-20T12:32:33;7.90;;;3.53;;
73487;SDS011;61721;42.206;25.320;2023-07-20T12:35:01;7.97;;;3.58;;
73487;SDS011;61721;42.206;25.320;2023-07-20T12:37:29;8.82;;;3.60;;
73487;SDS011;61721;42.206;25.320;2023-07-20T12:39:56;8.80;;;3.50;;
73487;SDS011;61721;42.206;25.320;2023-07-20T12:42:23;10.32;;;3.38;;
73487;SDS011;61721;42.206;25.320;2023-07-20T12:44:51;7.70;;;3.60;;
73487;SDS011;61721;42.206;25.320;2023-07-20T12:47:18;7.93;;;3.33;;
73487;SDS011;61721;42.206;25.320;2023-07-20T12:49:46;8.82;;;3.63;;
73487;SDS011;61721;42.206;25.320;2023-07-20T12:52:14;10.15;;;3.80;;
73487;SDS011;61721;42.206;25.320;2023-07-20T12:54:41;9.43;;;3.20;;
73487;SDS011;61721;42.206;25.320;2023-07-20T12:57:10;7.03;;;3.50;;
73487;SDS011;61721;42.206;25.320;2023-07-20T12:59:37;7.07;;;3.20;;
73487;SDS011;61721;42.206;25.320;2023-07-20T13:02:07;9.80;;;3.55;;
73487;SDS011;61721;42.206;25.320;2023-07-20T13:04:34;7.63;;;3.33;;
73487;SDS011;61721;42.206;25.320;2023-07-20T13:07:01;15.07;;;4.05;;
73487;SDS011;61721;42.206;25.320;2023-07-20T13:09:30;13.38;;;3.97;;
73487;SDS011;61721;42.206;25.320;2023-07-20T13:11:58;6.95;;;3.83;;
73487;SDS011;61721;42.206;25.320;2023-07-20T13:14:26;11.30;;;3.75;;
73487;SDS011;61721;42.206;25.320;2023-07-20T13:16:55;11.70;;;4.05;;
73487;SDS011;61721;42.206;25.320;2023-07-20T13:19:22;11.68;;;3.58;;
73487;SDS011;61721;42.206;25.320;2023-07-20T13:21:59;6.95;;;3.40;;
73487;SDS011;61721;42.206;25.320;2023-07-20T13:24:26;8.75;;;3.50;;
73487;SDS011;61721;42.206;25.320;2023-07-20T13:26:55;6.78;;;3.85;;
73487;SDS011;61721;42.206;25.320;2023-07-20T13:31:51;8.23;;;4.22;;
73487;SDS011;61721;42.206;25.320;2023-07-20T13:34:18;33.05;;;5.22;;
73487;SDS011;61721;42.206;25.320;2023-07-20T13:36:45;9.93;;;3.50;;
73487;SDS011;61721;42.206;25.320;2023-07-20T13:39:12;9.73;;;3.47;;
73487;SDS011;61721;42.206;25.320;2023-07-20T13:41:39;7.47;;;4.03;;
73487;SDS011;61721;42.206;25.320;2023-07-20T13:44:08;14.57;;;3.90;;
73487;SDS011;61721;42.206;25.320;2023-07-20T13:46:35;10.18;;;3.38;;
73487;SDS011;61721;42.206;25.320;2023-07-20T13:49:04;8.73;;;3.67;;
73487;SDS011;61721;42.206;25.320;2023-07-20T13:51:31;10.15;;;3.55;;
73487;SDS011;61721;42.206;25.320;2023-07-20T13:53:58;9.35;;;3.50;;
73487;SDS011;61721;42.206;25.320;2023-07-20T13:56:41;9.57;;;3.53;;
73487;SDS011;61721;42.206;25.320;2023-07-20T13:59:10;8.57;;;3.58;;
73487;SDS011;61721;42.206;25.320;2023-07-20T14:01:37;10.02;;;3.05;;
73487;SDS011;61721;42.206;25.320;2023-07-20T14:04:04;11.07;;;3.80;;
73487;SDS011;61721;42.206;25.320;2023-07-20T14:06:32;14.65;;;4.57;;
73487;SDS011;61721;42.206;25.320;2023-07-20T14:08:59;9.95;;;4.65;;
73487;SDS011;61721;42.206;25.320;2023-07-20T14:11:27;7.35;;;4.70;;
73487;SDS011;61721;42.206;25.320;2023-07-20T14:13:54;10.65;;;4.53;;
73487;SDS011;61721;42.206;25.320;2023-07-20T14:16:26;9.93;;;4.03;;
73487;SDS011;61721;42.206;25.320;2023-07-20T14:18:53;8.57;;;3.90;;
73487;SDS011;61721;42.206;25.320;2023-07-20T14:21:20;7.88;;;3.85;;
73487;SDS011;61721;42.206;25.320;2023-07-20T14:23:49;8.25;;;4.18;;
73487;SDS011;61721;42.206;25.320;2023-07-20T14:26:18;13.00;;;4.03;;
73487;SDS011;61721;42.206;25.320;2023-07-20T14:28:45;9.30;;;4.13;;
73487;SDS011;61721;42.206;25.320;2023-07-20T14:31:12;10.77;;;4.18;;
73487;SDS011;61721;42.206;25.320;2023-07-20T14:33:40;6.85;;;3.35;;
73487;SDS011;61721;42.206;25.320;2023-07-20T14:36:08;9.43;;;3.35;;
73487;SDS011;61721;42.206;25.320;2023-07-20T14:38:35;8.30;;;3.47;;
73487;SDS011;61721;42.206;25.320;2023-07-20T14:41:02;7.00;;;3.35;;
73487;SDS011;61721;42.206;25.320;2023-07-20T14:43:31;7.40;;;3.70;;
73487;SDS011;61721;42.206;25.320;2023-07-20T14:46:04;10.45;;;3.45;;
73487;SDS011;61721;42.206;25.320;2023-07-20T14:48:31;8.38;;;3.65;;
73487;SDS011;61721;42.206;25.320;2023-07-20T14:51:00;10.05;;;3.15;;
73487;SDS011;61721;42.206;25.320;2023-07-20T14:53:28;7.22;;;3.58;;
73487;SDS011;61721;42.206;25.320;2023-07-20T14:55:58;10.40;;;3.63;;
73487;SDS011;61721;42.206;25.320;2023-07-20T14:58:26;8.38;;;4.03;;